createdAt,value
2018-06-23T00:00:17.582Z,4.10
2018-06-23T00:02:46.409Z,4.63
2018-06-23T00:05:15.353Z,3.73
2018-06-23T00:07:44.129Z,4.23
2018-06-23T00:10:12.689Z,4.47
2018-06-23T00:15:38.320Z,3.53
2018-06-23T00:18:07.101Z,3.90
2018-06-23T00:20:35.892Z,3.37
2018-06-23T00:23:04.689Z,3.80
2018-06-23T00:25:39.013Z,3.53
2018-06-23T00:28:07.800Z,3.63
2018-06-23T00:30:36.624Z,3.40
2018-06-23T00:33:05.381Z,4.43
2018-06-23T00:35:34.161Z,3.43
2018-06-23T00:38:02.944Z,3.73
2018-06-23T00:40:31.753Z,3.33
2018-06-23T00:43:00.522Z,3.37
2018-06-23T00:45:29.309Z,3.33
2018-06-23T00:47:58.105Z,4.53
2018-06-23T00:50:27.172Z,3.40
2018-06-23T00:52:55.925Z,3.43
2018-06-23T00:55:24.703Z,3.13
2018-06-23T00:57:53.393Z,2.77
2018-06-23T01:00:22.085Z,3.07
2018-06-23T01:02:50.857Z,3.23
2018-06-23T01:05:19.420Z,3.40
2018-06-23T01:07:48.114Z,2.20
2018-06-23T01:10:16.889Z,2.67
2018-06-23T01:12:45.677Z,2.30
2018-06-23T01:15:14.489Z,2.60
2018-06-23T01:17:43.118Z,4.07
2018-06-23T01:20:11.814Z,3.30
2018-06-23T01:22:40.596Z,2.33
2018-06-23T01:25:09.381Z,3.30
2018-06-23T01:27:38.133Z,2.20
2018-06-23T01:30:07.248Z,4.13
2018-06-23T01:32:36.041Z,2.80
2018-06-23T01:35:04.889Z,2.77
2018-06-23T01:37:33.661Z,2.60
2018-06-23T01:40:02.446Z,2.90
2018-06-23T01:42:31.236Z,2.53
2018-06-23T01:45:00.033Z,2.37
2018-06-23T01:47:28.861Z,2.80
2018-06-23T01:49:57.671Z,1.60
2018-06-23T01:52:26.454Z,2.40
2018-06-23T01:54:55.255Z,3.67
2018-06-23T01:57:24.014Z,1.90
2018-06-23T01:59:52.802Z,2.03
2018-06-23T02:02:21.716Z,2.10
2018-06-23T02:04:50.476Z,2.53
2018-06-23T02:07:19.269Z,2.77
2018-06-23T02:09:48.313Z,3.10
2018-06-23T02:12:17.098Z,2.13
2018-06-23T02:14:51.397Z,2.17
2018-06-23T02:18:27.538Z,2.67
2018-06-23T02:21:01.584Z,2.17
2018-06-23T02:23:36.049Z,2.50
2018-06-23T02:26:10.181Z,1.93
2018-06-23T02:28:44.344Z,2.23
2018-06-23T02:31:18.550Z,1.87
2018-06-23T02:33:52.720Z,2.03
2018-06-23T02:36:21.317Z,1.77
2018-06-23T02:38:50.005Z,1.90
2018-06-23T02:41:18.833Z,2.97
2018-06-23T02:43:47.604Z,1.87
2018-06-23T02:46:16.377Z,2.60
2018-06-23T02:48:45.139Z,1.93
2018-06-23T02:51:13.745Z,2.37
2018-06-23T02:53:42.505Z,2.07
2018-06-23T02:56:11.294Z,2.23
2018-06-23T02:58:40.062Z,2.07
2018-06-23T03:01:08.851Z,1.73
2018-06-23T03:03:37.637Z,2.00
2018-06-23T03:06:06.454Z,1.53
2018-06-23T03:08:35.213Z,2.17
2018-06-23T03:11:04.285Z,1.80
2018-06-23T03:13:33.277Z,1.40
2018-06-23T03:16:02.061Z,1.97
2018-06-23T03:18:30.821Z,1.60
2018-06-23T03:20:59.393Z,2.37
2018-06-23T03:23:28.077Z,1.60
2018-06-23T03:25:56.660Z,1.67
2018-06-23T03:28:25.141Z,1.57
2018-06-23T03:30:53.632Z,2.13
2018-06-23T03:33:22.334Z,2.10
2018-06-23T03:35:51.257Z,1.80
2018-06-23T03:38:20.457Z,2.37
2018-06-23T03:40:49.230Z,1.77
2018-06-23T03:43:18.013Z,2.13
2018-06-23T03:45:47.485Z,2.17
2018-06-23T03:48:16.184Z,1.80
2018-06-23T03:50:44.877Z,2.33
2018-06-23T03:53:14.097Z,1.83
2018-06-23T03:55:42.861Z,1.50
2018-06-23T03:58:11.628Z,1.57
2018-06-23T04:00:44.658Z,1.33
2018-06-23T04:03:13.217Z,1.60
2018-06-23T04:05:44.653Z,1.97
2018-06-23T04:08:13.666Z,1.33
2018-06-23T04:10:42.657Z,2.23
2018-06-23T04:13:11.245Z,1.40
2018-06-23T04:15:39.918Z,1.80
2018-06-23T04:18:08.704Z,2.00
2018-06-23T04:20:37.260Z,2.27
2018-06-23T04:23:05.977Z,2.30
2018-06-23T04:25:34.749Z,2.00
2018-06-23T04:28:03.527Z,1.37
2018-06-23T04:30:32.418Z,1.43
2018-06-23T04:33:01.221Z,1.47
2018-06-23T04:35:29.995Z,1.87
2018-06-23T04:37:58.769Z,1.30
2018-06-23T04:40:27.549Z,1.20
2018-06-23T04:42:56.347Z,2.13
2018-06-23T04:45:25.106Z,1.10
2018-06-23T04:47:54.078Z,1.43
2018-06-23T04:50:22.829Z,1.60
2018-06-23T04:52:51.626Z,1.90
2018-06-23T04:55:20.385Z,1.40
2018-06-23T04:57:49.166Z,1.40
2018-06-23T05:00:19.436Z,1.70
2018-06-23T05:02:48.128Z,1.70
2018-06-23T05:05:16.797Z,1.40
2018-06-23T05:07:45.760Z,1.70
2018-06-23T05:10:14.533Z,1.67
2018-06-23T05:12:43.180Z,1.20
2018-06-23T05:15:11.862Z,1.53
2018-06-23T05:17:40.624Z,1.50
2018-06-23T05:20:09.452Z,1.57
2018-06-23T05:22:38.641Z,1.27
2018-06-23T05:25:07.180Z,1.70
2018-06-23T05:27:35.893Z,1.63
2018-06-23T05:30:05.249Z,1.77
2018-06-23T05:32:34.026Z,2.47
2018-06-23T05:35:02.775Z,1.93
2018-06-23T05:37:31.516Z,1.70
2018-06-23T05:40:00.697Z,1.60
2018-06-23T05:42:29.445Z,2.13
2018-06-23T05:44:58.236Z,1.67
2018-06-23T05:47:26.993Z,1.87
2018-06-23T05:49:55.765Z,1.77
2018-06-23T05:52:24.529Z,1.70
2018-06-23T05:54:53.296Z,1.63
2018-06-23T05:57:22.081Z,2.10
2018-06-23T05:59:50.563Z,1.67
2018-06-23T06:02:19.237Z,1.60
2018-06-23T06:04:48.049Z,2.60
2018-06-23T06:07:16.837Z,2.10
2018-06-23T06:09:45.392Z,2.43
2018-06-23T06:12:14.082Z,1.83
2018-06-23T06:14:42.873Z,1.57
2018-06-23T06:17:26.633Z,1.97
2018-06-23T06:19:56.471Z,1.90
2018-06-23T06:22:27.303Z,2.23
2018-06-23T06:24:56.249Z,2.13
2018-06-23T06:27:25.177Z,2.63
2018-06-23T06:29:54.686Z,1.57
2018-06-23T06:32:23.905Z,1.83
2018-06-23T06:34:52.693Z,2.50
2018-06-23T06:37:21.481Z,2.10
2018-06-23T06:39:50.247Z,1.73
2018-06-23T06:42:19.020Z,1.80
2018-06-23T06:44:47.810Z,1.17
2018-06-23T06:47:17.657Z,2.40
2018-06-23T06:49:46.481Z,1.57
2018-06-23T06:52:15.258Z,2.30
2018-06-23T06:54:44.257Z,1.80
2018-06-23T06:57:13.112Z,2.10
2018-06-23T06:59:41.849Z,1.77
2018-06-23T07:02:10.621Z,2.47
2018-06-23T07:04:39.821Z,1.63
2018-06-23T07:07:08.618Z,2.37
2018-06-23T07:09:37.442Z,1.60
2018-06-23T07:12:06.432Z,2.20
2018-06-23T07:14:35.221Z,1.80
2018-06-23T07:17:04.002Z,2.83
2018-06-23T07:19:32.813Z,1.90
2018-06-23T07:22:01.571Z,2.33
2018-06-23T07:24:30.349Z,2.20
2018-06-23T07:26:59.189Z,2.37
2018-06-23T07:29:27.929Z,1.97
2018-06-23T07:31:56.697Z,2.50
2018-06-23T07:34:25.515Z,2.83
2018-06-23T07:36:54.216Z,1.77
2018-06-23T07:39:22.986Z,1.90
2018-06-23T07:41:51.749Z,2.13
2018-06-23T07:44:20.533Z,2.00
2018-06-23T07:46:49.566Z,2.10
2018-06-23T07:49:18.325Z,2.10
2018-06-23T07:51:47.108Z,2.20
2018-06-23T07:54:15.901Z,1.90
2018-06-23T07:56:44.664Z,1.93
2018-06-23T07:59:13.433Z,1.90
2018-06-23T08:01:42.262Z,2.20
2018-06-23T08:04:10.978Z,2.70
2018-06-23T08:06:39.761Z,1.50
2018-06-23T08:09:09.215Z,2.20
2018-06-23T08:11:38.069Z,2.30
2018-06-23T08:14:06.797Z,2.30
2018-06-23T08:16:35.718Z,2.17
2018-06-23T08:19:04.539Z,2.67
2018-06-23T08:21:33.305Z,1.43
2018-06-23T08:24:02.085Z,2.20
2018-06-23T08:26:31.068Z,2.30
2018-06-23T08:28:59.785Z,2.27
2018-06-23T08:31:28.957Z,2.67
2018-06-23T08:33:57.789Z,2.73
2018-06-23T08:36:26.618Z,2.70
2018-06-23T08:38:55.365Z,2.10
2018-06-23T08:41:24.188Z,2.10
2018-06-23T08:43:53.034Z,2.30
2018-06-23T08:46:21.834Z,2.07
2018-06-23T08:48:50.697Z,2.17
2018-06-23T08:51:19.802Z,2.10
2018-06-23T08:53:48.581Z,2.47
2018-06-23T08:56:17.381Z,2.60
2018-06-23T08:58:46.141Z,2.60
2018-06-23T09:01:14.958Z,2.03
2018-06-23T09:03:43.813Z,2.40
2018-06-23T09:06:12.613Z,2.80
2018-06-23T09:08:41.389Z,2.43
2018-06-23T09:11:10.221Z,2.80
2018-06-23T09:13:39.052Z,2.20
2018-06-23T09:16:07.770Z,1.80
2018-06-23T09:18:36.585Z,2.87
2018-06-23T09:21:05.385Z,2.00
2018-06-23T09:23:34.066Z,2.20
2018-06-23T09:26:02.858Z,1.97
2018-06-23T09:28:31.662Z,2.90
2018-06-23T09:31:00.477Z,2.00
2018-06-23T09:33:29.226Z,2.83
2018-06-23T09:35:58.000Z,2.37
2018-06-23T09:38:26.489Z,3.17
2018-06-23T09:40:55.181Z,3.10
2018-06-23T09:43:23.740Z,2.80
2018-06-23T09:45:52.478Z,2.40
2018-06-23T09:48:21.205Z,2.37
2018-06-23T09:50:50.021Z,2.17
2018-06-23T09:53:18.901Z,2.13
2018-06-23T09:55:47.753Z,2.23
2018-06-23T09:58:16.291Z,2.37
2018-06-23T10:00:44.966Z,2.20
2018-06-23T10:03:13.766Z,2.67
2018-06-23T10:05:42.547Z,2.43
2018-06-23T10:08:11.326Z,2.53
2018-06-23T10:10:40.129Z,3.23
2018-06-23T10:13:08.713Z,2.87
2018-06-23T10:15:37.300Z,2.33
2018-06-23T10:18:06.039Z,2.97
2018-06-23T10:20:34.809Z,2.83
2018-06-23T10:23:03.582Z,2.97
2018-06-23T10:25:32.354Z,2.23
2018-06-23T10:28:01.330Z,2.83
2018-06-23T10:30:30.118Z,2.90
2018-06-23T10:32:58.899Z,3.53
2018-06-23T10:35:27.668Z,2.80
2018-06-23T10:37:56.473Z,2.30
2018-06-23T10:40:25.257Z,2.03
2018-06-23T10:42:54.076Z,2.23
2018-06-23T10:45:22.621Z,2.30
2018-06-23T10:47:51.338Z,2.33
2018-06-23T10:50:20.091Z,2.47
2018-06-23T10:52:48.912Z,1.60
2018-06-23T10:55:17.709Z,17.10
2018-06-23T10:57:46.456Z,56.87
2018-06-23T11:00:15.082Z,45.87
2018-06-23T11:02:43.672Z,51.33
2018-06-23T11:05:12.358Z,10.73
2018-06-23T11:07:41.136Z,12.53
2018-06-23T11:10:09.724Z,12.00
2018-06-23T11:12:38.533Z,5.17
2018-06-23T11:15:07.341Z,4.43
2018-06-23T11:17:36.129Z,3.50
2018-06-23T11:20:05.153Z,3.00
2018-06-23T11:22:33.964Z,8.57
2018-06-23T11:25:02.792Z,5.23
2018-06-23T11:27:31.580Z,2.50
2018-06-23T11:30:00.353Z,3.37
2018-06-23T11:32:29.381Z,1.97
2018-06-23T11:34:58.267Z,1.60
2018-06-23T11:37:27.053Z,2.30
2018-06-23T11:39:55.982Z,1.60
2018-06-23T11:42:24.830Z,1.70
2018-06-23T11:44:53.809Z,2.00
2018-06-23T11:47:22.585Z,1.77
2018-06-23T11:49:52.009Z,2.00
2018-06-23T11:52:20.847Z,1.60
2018-06-23T11:54:49.601Z,2.10
2018-06-23T11:57:19.312Z,2.60
2018-06-23T11:59:48.614Z,2.10
2018-06-23T12:02:18.825Z,2.10
2018-06-23T12:04:48.193Z,1.67
2018-06-23T12:07:16.776Z,2.00
2018-06-23T12:09:45.506Z,1.77
2018-06-23T12:12:14.285Z,2.47
2018-06-23T12:14:43.128Z,1.90
2018-06-23T12:17:11.929Z,1.60
2018-06-23T12:19:40.561Z,1.70
2018-06-23T12:22:09.309Z,1.40
2018-06-23T12:24:38.182Z,1.73
2018-06-23T12:27:07.649Z,1.30
2018-06-23T12:29:36.429Z,1.40
2018-06-23T12:32:05.193Z,1.97
2018-06-23T12:34:34.177Z,1.73
2018-06-23T12:37:02.942Z,1.67
2018-06-23T12:39:31.705Z,1.87
2018-06-23T12:42:00.608Z,1.93
2018-06-23T12:44:29.537Z,1.83
2018-06-23T12:46:58.622Z,1.43
2018-06-23T12:49:27.374Z,1.30
2018-06-23T12:51:56.307Z,2.33
2018-06-23T12:54:25.397Z,1.60
2018-06-23T12:56:54.361Z,1.87
2018-06-23T12:59:23.361Z,1.70
2018-06-23T13:01:52.109Z,1.47
2018-06-23T13:04:21.024Z,2.03
2018-06-23T13:06:49.808Z,1.73
2018-06-23T13:09:18.569Z,1.50
2018-06-23T13:11:47.317Z,1.30
2018-06-23T13:14:16.090Z,1.10
2018-06-23T13:16:44.838Z,0.83
2018-06-23T13:19:14.273Z,0.97
2018-06-23T13:21:43.041Z,1.00
2018-06-23T13:24:11.801Z,1.33
2018-06-23T13:26:40.561Z,1.27
2018-06-23T13:29:09.385Z,1.30
2018-06-23T13:31:38.136Z,1.30
2018-06-23T13:34:06.982Z,1.20
2018-06-23T13:36:35.722Z,0.87
2018-06-23T13:39:07.173Z,1.20
2018-06-23T13:41:36.068Z,1.30
2018-06-23T13:44:04.818Z,1.00
2018-06-23T13:46:33.792Z,1.20
2018-06-23T13:49:02.676Z,1.00
2018-06-23T13:51:31.466Z,1.20
2018-06-23T13:54:00.360Z,1.47
2018-06-23T13:56:29.112Z,1.40
2018-06-23T13:58:57.887Z,1.40
2018-06-23T14:01:26.630Z,1.40
2018-06-23T14:03:55.788Z,1.33
2018-06-23T14:06:24.550Z,1.50
2018-06-23T14:08:53.383Z,2.00
2018-06-23T14:11:22.693Z,1.90
2018-06-23T14:13:51.465Z,2.17
2018-06-23T14:16:20.213Z,2.10
2018-06-23T14:18:48.980Z,2.30
2018-06-23T14:21:17.733Z,2.60
2018-06-23T14:23:46.495Z,2.63
2018-06-23T14:26:15.253Z,2.20
2018-06-23T14:28:44.013Z,2.50
2018-06-23T14:31:12.761Z,2.20
2018-06-23T14:33:41.556Z,2.10
2018-06-23T14:36:10.302Z,2.60
2018-06-23T14:38:39.080Z,2.20
2018-06-23T14:41:07.841Z,2.13
2018-06-23T14:43:36.680Z,2.43
2018-06-23T14:46:05.457Z,2.27
2018-06-23T14:48:34.420Z,3.07
2018-06-23T14:51:03.190Z,3.00
2018-06-23T14:53:31.985Z,2.90
2018-06-23T14:56:00.729Z,2.90
2018-06-23T14:58:29.513Z,3.13
2018-06-23T15:00:58.289Z,2.73
2018-06-23T15:03:27.069Z,2.70
2018-06-23T15:05:55.894Z,2.83
2018-06-23T15:08:35.998Z,2.73
2018-06-23T15:11:16.105Z,2.50
2018-06-23T15:13:44.841Z,2.90
2018-06-23T15:16:13.604Z,2.20
2018-06-23T15:18:42.441Z,2.70
2018-06-23T15:21:11.232Z,3.03
2018-06-23T15:23:39.994Z,3.13
2018-06-23T15:26:08.828Z,3.13
2018-06-23T15:28:37.650Z,2.40
2018-06-23T15:31:06.412Z,2.57
2018-06-23T15:33:35.247Z,2.20
2018-06-23T15:36:03.972Z,3.30
2018-06-23T15:38:32.982Z,2.97
2018-06-23T15:41:01.733Z,2.90
2018-06-23T15:43:30.506Z,2.40
2018-06-23T15:45:59.257Z,2.50
2018-06-23T15:48:28.010Z,2.53
2018-06-23T15:50:56.853Z,2.90
2018-06-23T15:53:25.613Z,2.43
2018-06-23T15:55:54.425Z,2.83
2018-06-23T15:58:23.365Z,2.77
2018-06-23T16:00:52.133Z,2.83
2018-06-23T16:03:20.880Z,2.43
2018-06-23T16:05:49.661Z,4.00
2018-06-23T16:08:18.466Z,3.37
2018-06-23T16:10:47.293Z,3.73
2018-06-23T16:13:16.037Z,3.00
2018-06-23T16:15:44.802Z,3.27
2018-06-23T16:18:13.549Z,3.40
2018-06-23T16:20:42.301Z,3.40
2018-06-23T16:23:11.055Z,3.50
2018-06-23T16:25:39.813Z,2.90
2018-06-23T16:28:08.576Z,3.47
2018-06-23T16:30:37.344Z,3.47
2018-06-23T16:33:06.134Z,2.83
2018-06-23T16:35:34.897Z,3.20
2018-06-23T16:38:03.757Z,3.23
2018-06-23T16:40:32.793Z,3.60
2018-06-23T16:43:01.625Z,3.40
2018-06-23T16:45:30.394Z,3.57
2018-06-23T16:47:59.145Z,4.30
2018-06-23T16:50:27.917Z,3.13
2018-06-23T16:52:56.663Z,3.67
2018-06-23T16:55:25.441Z,3.83
2018-06-23T16:57:54.213Z,4.13
2018-06-23T17:00:22.973Z,3.67
2018-06-23T17:02:51.765Z,4.57
2018-06-23T17:05:20.570Z,3.90
2018-06-23T17:07:49.329Z,3.33
2018-06-23T17:10:18.090Z,4.30
2018-06-23T17:12:46.977Z,3.60
2018-06-23T17:15:15.819Z,4.27
2018-06-23T17:17:44.508Z,4.53
2018-06-23T17:20:13.394Z,5.50
2018-06-23T17:22:42.174Z,4.93
2018-06-23T17:25:10.909Z,3.77
2018-06-23T17:27:39.713Z,4.00
2018-06-23T17:30:08.492Z,4.70
2018-06-23T17:32:37.253Z,5.03
2018-06-23T17:35:06.037Z,4.40
2018-06-23T17:37:34.823Z,4.87
2018-06-23T17:40:03.615Z,4.30
2018-06-23T17:42:32.381Z,4.80
2018-06-23T17:45:01.129Z,5.23
2018-06-23T17:47:29.912Z,5.43
2018-06-23T17:49:58.674Z,5.00
2018-06-23T17:52:27.498Z,5.37
2018-06-23T17:54:56.233Z,5.97
2018-06-23T17:57:25.100Z,6.10
2018-06-23T17:59:53.752Z,5.77
2018-06-23T18:02:22.525Z,6.10
2018-06-23T18:04:51.281Z,6.20
2018-06-23T18:07:20.025Z,6.33
2018-06-23T18:09:49.332Z,6.30
2018-06-23T18:12:18.169Z,5.37
2018-06-23T18:14:46.849Z,5.77
2018-06-23T18:17:15.620Z,6.03
2018-06-23T18:19:44.368Z,6.93
2018-06-23T18:22:13.145Z,5.60
2018-06-23T18:24:42.017Z,6.23
2018-06-23T18:27:10.970Z,6.23
2018-06-23T18:29:39.725Z,5.17
2018-06-23T18:32:08.532Z,5.57
2018-06-23T18:34:37.288Z,7.30
2018-06-23T18:37:06.081Z,5.67
2018-06-23T18:39:34.840Z,6.90
2018-06-23T18:42:03.605Z,4.80
2018-06-23T18:44:32.499Z,5.77
2018-06-23T18:47:01.258Z,5.10
2018-06-23T18:49:30.153Z,4.73
2018-06-23T18:51:58.945Z,5.63
2018-06-23T18:54:27.697Z,6.37
2018-06-23T18:56:56.638Z,5.80
2018-06-23T18:59:25.402Z,4.80
2018-06-23T19:01:54.192Z,4.87
2018-06-23T19:04:22.945Z,5.30
2018-06-23T19:06:51.744Z,4.77
2018-06-23T19:09:20.554Z,5.90
2018-06-23T19:11:49.274Z,5.23
2018-06-23T19:14:19.842Z,5.13
2018-06-23T19:16:48.613Z,5.17
2018-06-23T19:19:17.512Z,5.00
2018-06-23T19:21:46.280Z,4.87
2018-06-23T19:24:15.019Z,5.70
2018-06-23T19:26:43.805Z,5.40
2018-06-23T19:29:12.557Z,5.90
2018-06-23T19:31:41.325Z,6.50
2018-06-23T19:34:10.089Z,6.13
2018-06-23T19:36:38.837Z,5.83
2018-06-23T19:39:09.089Z,5.60
2018-06-23T19:41:37.849Z,5.43
2018-06-23T19:44:06.664Z,5.43
2018-06-23T19:46:35.413Z,5.73
2018-06-23T19:49:04.202Z,5.43
2018-06-23T19:51:32.970Z,4.93
2018-06-23T19:54:01.723Z,5.57
2018-06-23T19:56:30.478Z,5.60
2018-06-23T19:58:59.288Z,5.60
2018-06-23T20:01:28.058Z,5.73
2018-06-23T20:03:56.834Z,5.13
2018-06-23T20:06:25.640Z,6.07
2018-06-23T20:08:54.405Z,6.43
2018-06-23T20:11:23.344Z,5.90
2018-06-23T20:13:52.133Z,6.17
2018-06-23T20:16:20.892Z,5.90
2018-06-23T20:18:49.652Z,5.00
2018-06-23T20:21:18.493Z,5.67
2018-06-23T20:23:47.265Z,5.33
2018-06-23T20:26:16.025Z,6.40
2018-06-23T20:28:44.812Z,5.43
2018-06-23T20:31:13.585Z,5.20
2018-06-23T20:33:42.352Z,5.60
2018-06-23T20:36:11.201Z,5.20
2018-06-23T20:38:39.981Z,5.53
2018-06-23T20:41:08.764Z,4.83
2018-06-23T20:43:37.553Z,4.70
2018-06-23T20:46:06.436Z,4.37
2018-06-23T20:48:35.245Z,3.63
2018-06-23T20:51:04.097Z,4.63
2018-06-23T20:53:32.862Z,4.80
2018-06-23T20:56:01.677Z,4.63
2018-06-23T20:58:30.481Z,4.23
2018-06-23T21:00:59.429Z,4.60
2018-06-23T21:03:28.325Z,4.60
2018-06-23T21:05:57.097Z,4.53
2018-06-23T21:08:25.930Z,4.80
2018-06-23T21:10:54.787Z,4.23
2018-06-23T21:13:23.545Z,4.50
2018-06-23T21:15:52.315Z,5.13
2018-06-23T21:18:21.093Z,4.93
2018-06-23T21:20:49.853Z,5.27
2018-06-23T21:23:18.605Z,5.07
2018-06-23T21:25:47.401Z,4.30
2018-06-23T21:28:16.173Z,4.43
2018-06-23T21:30:45.038Z,5.37
2018-06-23T21:33:13.746Z,4.90
2018-06-23T21:35:43.393Z,4.37
2018-06-23T21:38:18.721Z,4.77
2018-06-23T21:40:47.746Z,5.37
2018-06-23T21:43:16.560Z,5.30
2018-06-23T21:45:45.284Z,5.60
2018-06-23T21:48:14.037Z,5.03
2018-06-23T21:50:42.812Z,5.53
2018-06-23T21:53:11.611Z,4.80
2018-06-23T21:55:40.356Z,4.73
2018-06-23T21:58:09.204Z,5.43
2018-06-23T22:00:41.481Z,4.90
2018-06-23T22:03:11.409Z,4.87
2018-06-23T22:05:40.333Z,5.23
2018-06-23T22:08:09.445Z,4.97
2018-06-23T22:10:38.265Z,4.90
2018-06-23T22:13:07.052Z,4.97
2018-06-23T22:15:36.000Z,4.97
2018-06-23T22:18:04.790Z,4.87
2018-06-23T22:20:33.575Z,4.90
2018-06-23T22:23:02.344Z,5.00
2018-06-23T22:25:30.905Z,5.63
2018-06-23T22:27:59.757Z,5.20
2018-06-23T22:30:28.561Z,4.97
2018-06-23T22:32:57.436Z,4.67
2018-06-23T22:35:26.217Z,4.73
2018-06-23T22:37:54.973Z,4.80
2018-06-23T22:40:23.576Z,4.53
2018-06-23T22:42:52.521Z,4.73
2018-06-23T22:45:21.436Z,4.73
2018-06-23T22:47:49.977Z,5.53
2018-06-23T22:50:18.676Z,4.53
2018-06-23T22:52:47.449Z,4.93
2018-06-23T22:55:16.212Z,4.47
2018-06-23T22:57:44.974Z,4.57
2018-06-23T23:00:14.601Z,4.43
2018-06-23T23:02:43.990Z,4.90
2018-06-23T23:05:12.548Z,4.37
2018-06-23T23:07:41.661Z,5.03
2018-06-23T23:10:11.132Z,3.90
2018-06-23T23:12:40.264Z,4.83
2018-06-23T23:15:08.821Z,5.70
2018-06-23T23:17:37.740Z,5.03
2018-06-23T23:20:06.441Z,4.53
2018-06-23T23:22:35.131Z,5.67
2018-06-23T23:25:03.737Z,4.70
2018-06-23T23:27:32.416Z,5.60
2018-06-23T23:30:01.182Z,4.43
2018-06-23T23:32:29.953Z,5.00
2018-06-23T23:34:58.729Z,5.20
2018-06-23T23:37:27.504Z,4.73
2018-06-23T23:39:56.257Z,5.67
2018-06-23T23:42:25.022Z,5.30
2018-06-23T23:44:53.780Z,4.93
2018-06-23T23:47:22.557Z,4.90
2018-06-23T23:49:51.316Z,5.30
2018-06-23T23:52:20.314Z,5.70
2018-06-23T23:54:49.090Z,5.13
2018-06-23T23:57:17.865Z,4.53
2018-06-23T23:59:46.678Z,5.07
